createdAt,value
2019-06-08T00:00:18.454Z,70.74
2019-06-08T00:02:47.374Z,70.83
2019-06-08T00:05:16.946Z,70.70
2019-06-08T00:07:46.404Z,73.23
2019-06-08T00:10:16.935Z,69.80
2019-06-08T00:12:46.515Z,71.71
2019-06-08T00:15:16.191Z,70.08
2019-06-08T00:17:45.021Z,70.42
2019-06-08T00:20:15.421Z,70.00
2019-06-08T00:22:44.350Z,69.26
2019-06-08T00:25:14.335Z,69.73
2019-06-08T00:27:43.765Z,72.47
2019-06-08T00:30:13.898Z,70.49
2019-06-08T00:32:42.773Z,70.07
2019-06-08T00:35:12.970Z,70.64
2019-06-08T00:37:41.782Z,70.10
2019-06-08T00:40:12.067Z,69.97
2019-06-08T00:42:40.999Z,70.29
2019-06-08T00:45:10.931Z,69.49
2019-06-08T00:47:47.569Z,69.63
2019-06-08T00:50:11.000Z,69.46
2019-06-08T00:52:39.944Z,69.73
2019-06-08T00:55:09.111Z,67.96
2019-06-08T00:57:37.931Z,67.94
2019-06-08T01:00:10.945Z,67.80
2019-06-08T01:02:39.502Z,67.52
2019-06-08T01:05:08.878Z,68.25
2019-06-08T01:07:37.910Z,67.76
2019-06-08T01:10:11.299Z,67.27
2019-06-08T01:12:40.195Z,68.04
2019-06-08T01:15:10.348Z,67.37
2019-06-08T01:17:39.301Z,67.70
2019-06-08T01:20:09.200Z,67.71
2019-06-08T01:22:38.108Z,68.42
2019-06-08T01:25:07.484Z,66.52
2019-06-08T01:27:36.298Z,65.46
2019-06-08T01:30:07.883Z,65.51
2019-06-08T01:32:36.753Z,65.65
2019-06-08T01:35:05.942Z,66.94
2019-06-08T01:37:34.732Z,66.26
2019-06-08T01:40:05.261Z,66.11
2019-06-08T01:42:34.153Z,66.75
2019-06-08T01:45:03.449Z,67.17
2019-06-08T01:47:32.763Z,67.02
2019-06-08T01:50:01.544Z,69.83
2019-06-08T01:52:30.918Z,68.83
2019-06-08T01:54:59.839Z,66.57
2019-06-08T01:57:29.331Z,66.23
2019-06-08T01:59:58.439Z,66.24
2019-06-08T02:02:27.877Z,67.08
2019-06-08T02:04:56.837Z,68.42
2019-06-08T02:07:26.321Z,66.58
2019-06-08T02:09:55.335Z,69.66
2019-06-08T02:12:24.773Z,69.39
2019-06-08T02:14:53.835Z,71.26
2019-06-08T02:17:22.723Z,70.03
2019-06-08T02:19:51.619Z,68.86
2019-06-08T02:22:20.512Z,66.89
2019-06-08T02:24:49.399Z,68.91
2019-06-08T02:27:18.291Z,70.30
2019-06-08T02:29:47.184Z,69.14
2019-06-08T02:32:16.076Z,68.97
2019-06-08T02:34:44.968Z,69.83
2019-06-08T02:37:13.858Z,71.46
2019-06-08T02:39:42.750Z,69.75
2019-06-08T02:42:12.254Z,68.78
2019-06-08T02:44:41.249Z,69.52
2019-06-08T02:47:10.553Z,65.28
2019-06-08T02:49:39.831Z,64.79
2019-06-08T02:52:10.565Z,69.59
2019-06-08T02:54:41.141Z,67.83
2019-06-08T02:57:12.422Z,66.63
2019-06-08T02:59:43.919Z,66.21
2019-06-08T03:02:14.273Z,65.40
2019-06-08T03:04:43.136Z,69.54
2019-06-08T03:07:15.608Z,68.57
2019-06-08T03:09:46.448Z,69.88
2019-06-08T03:12:17.167Z,70.25
2019-06-08T03:14:47.503Z,71.72
2019-06-08T03:17:16.564Z,70.01
2019-06-08T03:19:45.390Z,69.31
2019-06-08T03:22:14.178Z,73.28
2019-06-08T03:24:44.111Z,71.08
2019-06-08T03:27:13.083Z,72.59
2019-06-08T03:29:43.846Z,71.44
2019-06-08T03:32:12.404Z,71.17
2019-06-08T03:34:51.064Z,71.57
2019-06-08T03:37:11.824Z,72.40
2019-06-08T03:39:41.375Z,70.92
2019-06-08T03:42:12.169Z,71.09
2019-06-08T03:44:42.886Z,71.44
2019-06-08T03:47:12.417Z,71.14
2019-06-08T03:49:52.203Z,70.11
2019-06-08T03:52:12.136Z,71.15
2019-06-08T03:54:42.576Z,71.78
2019-06-08T03:57:12.070Z,70.42
2019-06-08T03:59:41.541Z,71.15
2019-06-08T04:02:12.313Z,71.61
2019-06-08T04:04:41.858Z,71.56
2019-06-08T04:07:12.142Z,71.12
2019-06-08T04:09:41.663Z,70.76
2019-06-08T04:12:13.097Z,73.53
2019-06-08T04:14:42.226Z,71.70
2019-06-08T04:17:12.514Z,72.06
2019-06-08T04:20:03.044Z,69.94
2019-06-08T04:22:12.653Z,71.74
2019-06-08T04:24:42.470Z,69.60
2019-06-08T04:27:14.024Z,70.93
2019-06-08T04:29:43.979Z,70.54
2019-06-08T04:32:13.347Z,71.73
2019-06-08T04:34:42.973Z,70.32
2019-06-08T04:37:15.847Z,72.68
2019-06-08T04:39:44.513Z,71.03
2019-06-08T04:42:13.515Z,71.35
2019-06-08T04:44:42.647Z,71.97
2019-06-08T04:47:12.135Z,74.68
2019-06-08T04:49:42.934Z,73.03
2019-06-08T04:52:12.458Z,72.84
2019-06-08T04:54:42.502Z,71.71
2019-06-08T04:57:12.184Z,71.16
2019-06-08T04:59:41.715Z,71.55
2019-06-08T05:02:11.811Z,71.55
2019-06-08T05:04:41.030Z,71.79
2019-06-08T05:07:10.209Z,72.35
2019-06-08T05:09:39.224Z,70.01
2019-06-08T05:12:08.809Z,69.88
2019-06-08T05:14:38.993Z,71.15
2019-06-08T05:17:08.217Z,70.58
2019-06-08T05:19:37.025Z,70.98
2019-06-08T05:22:06.216Z,71.42
2019-06-08T05:24:35.144Z,70.58
2019-06-08T05:27:04.104Z,70.50
2019-06-08T05:29:34.439Z,69.86
2019-06-08T05:32:03.324Z,69.92
2019-06-08T05:34:32.210Z,69.73
2019-06-08T05:37:01.101Z,69.59
2019-06-08T05:39:29.990Z,69.08
2019-06-08T05:41:58.778Z,69.31
2019-06-08T05:44:27.673Z,70.36
2019-06-08T05:46:56.563Z,68.73
2019-06-08T05:49:25.459Z,67.70
2019-06-08T05:51:54.451Z,67.37
2019-06-08T05:54:23.339Z,68.83
2019-06-08T05:56:52.127Z,67.88
2019-06-08T05:59:21.021Z,68.45
2019-06-08T06:01:51.049Z,67.11
2019-06-08T06:04:20.153Z,67.05
2019-06-08T06:06:49.276Z,71.44
2019-06-08T06:09:18.255Z,70.37
2019-06-08T06:11:47.237Z,69.74
2019-06-08T06:14:16.131Z,69.00
2019-06-08T06:16:45.100Z,66.39
2019-06-08T06:19:13.878Z,70.43
2019-06-08T06:21:43.075Z,66.36
2019-06-08T06:24:12.080Z,65.79
2019-06-08T06:26:41.295Z,64.59
2019-06-08T06:29:10.582Z,63.28
2019-06-08T06:31:39.470Z,63.19
2019-06-08T06:34:08.960Z,62.37
2019-06-08T06:36:37.768Z,61.86
2019-06-08T06:39:08.347Z,61.22
2019-06-08T06:41:37.201Z,59.98
2019-06-08T06:44:06.209Z,59.48
2019-06-08T06:46:35.177Z,59.20
2019-06-08T06:49:04.066Z,59.20
2019-06-08T06:51:33.983Z,58.78
2019-06-08T06:54:04.819Z,58.45
2019-06-08T06:56:33.610Z,57.09
2019-06-08T06:59:02.500Z,56.65
2019-06-08T07:01:31.699Z,57.84
2019-06-08T07:04:01.407Z,58.24
2019-06-08T07:06:30.304Z,57.70
2019-06-08T07:08:59.089Z,57.69
2019-06-08T07:11:27.878Z,56.65
2019-06-08T07:13:56.774Z,56.97
2019-06-08T07:16:25.659Z,57.07
2019-06-08T07:18:54.678Z,57.10
2019-06-08T07:21:23.646Z,56.86
2019-06-08T07:23:54.516Z,57.38
2019-06-08T07:26:24.914Z,55.27
2019-06-08T07:28:55.440Z,56.39
2019-06-08T07:31:24.537Z,56.33
2019-06-08T07:33:53.700Z,55.14
2019-06-08T07:36:22.626Z,53.31
2019-06-08T07:38:51.826Z,52.57
2019-06-08T07:41:22.253Z,52.13
2019-06-08T07:43:52.333Z,50.03
2019-06-08T07:46:21.367Z,52.03
2019-06-08T07:48:50.492Z,50.54
2019-06-08T07:51:19.352Z,49.17
2019-06-08T07:53:49.694Z,50.13
2019-06-08T07:56:18.776Z,48.68
2019-06-08T07:58:49.554Z,50.10
2019-06-08T08:01:18.200Z,50.21
2019-06-08T08:03:47.957Z,51.52
2019-06-08T08:06:16.912Z,51.58
2019-06-08T08:08:45.797Z,53.40
2019-06-08T08:11:14.580Z,53.20
2019-06-08T08:13:44.600Z,54.54
2019-06-08T08:16:13.488Z,53.79
2019-06-08T08:18:42.380Z,54.59
2019-06-08T08:21:22.112Z,53.04
2019-06-08T08:23:42.620Z,53.85
2019-06-08T08:26:12.643Z,54.35
2019-06-08T08:28:41.534Z,53.44
2019-06-08T08:31:13.243Z,52.36
2019-06-08T08:33:41.973Z,51.45
2019-06-08T08:36:11.991Z,54.17
2019-06-08T08:38:41.123Z,52.42
2019-06-08T08:41:12.276Z,53.99
2019-06-08T08:43:41.331Z,44.82
2019-06-08T08:46:11.142Z,43.67
2019-06-08T08:48:40.031Z,42.01
2019-06-08T08:51:12.400Z,40.56
2019-06-08T08:53:41.310Z,40.70
2019-06-08T08:56:10.517Z,41.32
2019-06-08T08:58:39.490Z,39.53
2019-06-08T09:01:08.643Z,37.16
2019-06-08T09:03:39.619Z,36.60
2019-06-08T09:06:09.244Z,40.38
2019-06-08T09:08:38.230Z,38.78
2019-06-08T09:11:08.281Z,39.78
2019-06-08T09:13:37.813Z,35.95
2019-06-08T09:16:08.008Z,37.39
2019-06-08T09:18:44.651Z,36.44
2019-06-08T09:21:13.544Z,36.99
2019-06-08T09:23:42.541Z,36.64
2019-06-08T09:26:13.329Z,36.93
2019-06-08T09:28:42.265Z,35.30
2019-06-08T09:31:13.012Z,34.76
2019-06-08T09:33:42.093Z,32.13
2019-06-08T09:36:12.008Z,29.85
2019-06-08T09:38:40.801Z,32.46
2019-06-08T09:41:10.734Z,31.30
2019-06-08T09:43:39.602Z,28.48
2019-06-08T09:46:09.555Z,34.01
2019-06-08T09:48:38.534Z,32.31
2019-06-08T09:51:09.224Z,31.98
2019-06-08T09:53:41.466Z,31.80
2019-06-08T09:56:09.916Z,32.25
2019-06-08T09:58:39.382Z,32.30
2019-06-08T10:01:11.591Z,31.26
2019-06-08T10:03:39.411Z,30.24
2019-06-08T10:06:12.038Z,31.39
2019-06-08T10:08:39.677Z,34.54
2019-06-08T10:11:09.646Z,35.02
2019-06-08T10:13:42.970Z,32.58
2019-06-08T10:16:10.949Z,31.41
2019-06-08T10:18:40.058Z,32.36
2019-06-08T10:21:09.665Z,33.94
2019-06-08T10:23:41.514Z,34.62
2019-06-08T10:26:09.801Z,32.95
2019-06-08T10:28:39.083Z,33.02
2019-06-08T10:31:09.169Z,31.44
2019-06-08T10:33:40.659Z,34.41
2019-06-08T10:36:12.239Z,32.91
2019-06-08T10:38:41.290Z,30.08
2019-06-08T10:41:17.835Z,29.93
2019-06-08T10:43:41.879Z,30.96
2019-06-08T10:46:17.267Z,30.67
2019-06-08T10:48:42.745Z,30.37
2019-06-08T10:51:13.121Z,30.99
2019-06-08T10:53:48.457Z,32.29
2019-06-08T10:56:12.694Z,34.08
2019-06-08T10:58:41.570Z,32.88
2019-06-08T11:01:12.523Z,31.26
2019-06-08T11:03:41.295Z,34.75
2019-06-08T11:06:13.100Z,33.88
2019-06-08T11:08:41.740Z,33.03
2019-06-08T11:11:11.965Z,34.52
2019-06-08T11:13:41.057Z,32.44
2019-06-08T11:16:13.539Z,35.29
2019-06-08T11:18:40.792Z,34.35
2019-06-08T11:21:12.693Z,32.54
2019-06-08T11:23:41.612Z,32.46
2019-06-08T11:26:19.595Z,33.07
2019-06-08T11:28:42.293Z,31.92
2019-06-08T11:31:15.712Z,33.76
2019-06-08T11:33:42.531Z,35.58
2019-06-08T11:36:14.634Z,35.90
2019-06-08T11:38:43.079Z,34.86
2019-06-08T11:41:13.727Z,32.95
2019-06-08T11:43:42.725Z,31.05
2019-06-08T11:46:13.959Z,32.09
2019-06-08T11:48:42.976Z,37.23
2019-06-08T11:51:13.233Z,30.12
2019-06-08T11:53:42.380Z,37.84
2019-06-08T11:56:13.510Z,30.80
2019-06-08T11:58:43.219Z,31.49
2019-06-08T12:01:15.264Z,29.61
2019-06-08T12:03:44.087Z,31.27
2019-06-08T12:06:14.522Z,32.64
2019-06-08T12:08:43.597Z,32.17
2019-06-08T12:11:18.419Z,31.75
2019-06-08T12:13:43.331Z,34.33
2019-06-08T12:16:15.850Z,34.59
2019-06-08T12:18:43.474Z,35.34
2019-06-08T12:21:13.287Z,35.32
2019-06-08T12:23:42.993Z,33.27
2019-06-08T12:26:12.255Z,32.56
2019-06-08T12:28:41.286Z,32.16
2019-06-08T12:31:15.691Z,34.32
2019-06-08T12:33:40.910Z,33.95
2019-06-08T12:36:12.663Z,34.75
2019-06-08T12:38:40.844Z,34.39
2019-06-08T12:41:12.304Z,33.40
2019-06-08T12:43:41.044Z,31.86
2019-06-08T12:46:11.675Z,33.82
2019-06-08T12:48:41.399Z,31.96
2019-06-08T12:51:12.067Z,32.19
2019-06-08T12:53:41.153Z,31.78
2019-06-08T12:56:11.782Z,33.87
2019-06-08T12:58:40.878Z,32.42
2019-06-08T13:01:11.065Z,31.77
2019-06-08T13:03:40.403Z,31.36
2019-06-08T13:06:11.247Z,32.69
2019-06-08T13:08:42.284Z,31.28
2019-06-08T13:11:12.381Z,30.92
2019-06-08T13:13:41.293Z,31.55
2019-06-08T13:16:12.443Z,32.35
2019-06-08T13:18:41.432Z,31.43
2019-06-08T13:21:23.144Z,31.59
2019-06-08T13:23:41.597Z,33.83
2019-06-08T13:26:11.507Z,34.18
2019-06-08T13:28:41.296Z,31.02
2019-06-08T13:31:11.655Z,30.83
2019-06-08T13:33:41.132Z,30.82
2019-06-08T13:36:12.114Z,31.82
2019-06-08T13:38:41.366Z,31.49
2019-06-08T13:41:11.381Z,33.01
2019-06-08T13:43:40.630Z,30.10
2019-06-08T13:46:09.884Z,31.61
2019-06-08T13:48:38.674Z,32.29
2019-06-08T13:51:08.455Z,32.92
2019-06-08T13:53:38.708Z,30.18
2019-06-08T13:56:07.933Z,31.25
2019-06-08T13:58:38.262Z,30.53
2019-06-08T14:01:09.962Z,28.33
2019-06-08T14:03:39.270Z,29.44
2019-06-08T14:06:08.695Z,27.98
2019-06-08T14:08:38.615Z,28.74
2019-06-08T14:11:08.342Z,27.96
2019-06-08T14:13:38.061Z,29.01
2019-06-08T14:16:11.205Z,27.82
2019-06-08T14:18:38.648Z,28.17
2019-06-08T14:21:09.183Z,29.94
2019-06-08T14:23:38.619Z,28.75
2019-06-08T14:26:09.346Z,28.23
2019-06-08T14:28:38.189Z,27.76
2019-06-08T14:31:10.955Z,26.19
2019-06-08T14:33:39.098Z,28.30
2019-06-08T14:36:08.394Z,27.63
2019-06-08T14:38:41.620Z,26.69
2019-06-08T14:41:08.021Z,26.50
2019-06-08T14:43:38.143Z,29.01
2019-06-08T14:46:08.056Z,27.45
2019-06-08T14:48:37.916Z,26.71
2019-06-08T14:51:08.723Z,27.67
2019-06-08T14:53:38.741Z,28.82
2019-06-08T14:56:09.190Z,28.06
2019-06-08T14:58:38.736Z,29.04
2019-06-08T15:01:08.546Z,28.07
2019-06-08T15:03:38.149Z,27.16
2019-06-08T15:06:08.368Z,27.71
2019-06-08T15:08:37.400Z,28.31
2019-06-08T15:11:08.111Z,27.24
2019-06-08T15:13:37.361Z,26.94
2019-06-08T15:16:08.472Z,25.62
2019-06-08T15:18:38.544Z,26.62
2019-06-08T15:21:08.026Z,25.67
2019-06-08T15:23:37.092Z,27.76
2019-06-08T15:26:20.690Z,26.54
2019-06-08T15:28:36.524Z,25.64
2019-06-08T15:31:08.163Z,26.90
2019-06-08T15:33:38.204Z,24.90
2019-06-08T15:36:08.538Z,25.00
2019-06-08T15:38:38.060Z,25.03
2019-06-08T15:41:07.942Z,25.50
2019-06-08T15:43:39.584Z,24.61
2019-06-08T15:46:08.677Z,26.26
2019-06-08T15:48:39.316Z,23.35
2019-06-08T15:51:09.097Z,24.40
2019-06-08T15:53:40.422Z,23.30
2019-06-08T15:56:09.165Z,22.81
2019-06-08T15:58:40.381Z,22.73
2019-06-08T16:01:09.678Z,23.10
2019-06-08T16:03:38.504Z,24.63
2019-06-08T16:06:08.086Z,25.50
2019-06-08T16:08:38.024Z,23.47
2019-06-08T16:11:07.964Z,23.32
2019-06-08T16:13:36.836Z,21.49
2019-06-08T16:16:06.012Z,22.59
2019-06-08T16:18:35.983Z,22.94
2019-06-08T16:21:05.040Z,23.70
2019-06-08T16:23:33.931Z,23.70
2019-06-08T16:26:02.926Z,23.50
2019-06-08T16:28:32.055Z,23.88
2019-06-08T16:31:01.121Z,22.57
2019-06-08T16:33:31.156Z,24.56
2019-06-08T16:36:00.130Z,22.51
2019-06-08T16:38:29.996Z,23.88
2019-06-08T16:40:58.935Z,23.79
2019-06-08T16:43:29.010Z,23.88
2019-06-08T16:45:58.051Z,24.13
2019-06-08T16:48:28.028Z,22.70
2019-06-08T16:50:56.907Z,22.48
2019-06-08T16:53:25.849Z,23.01
2019-06-08T16:55:54.741Z,22.90
2019-06-08T16:58:25.171Z,23.97
2019-06-08T17:00:54.059Z,23.74
2019-06-08T17:03:22.956Z,21.60
2019-06-08T17:05:51.842Z,21.70
2019-06-08T17:08:20.737Z,21.79
2019-06-08T17:10:49.623Z,21.60
2019-06-08T17:13:18.515Z,24.18
2019-06-08T17:15:47.613Z,23.33
2019-06-08T17:18:16.400Z,23.13
2019-06-08T17:20:46.215Z,21.33
2019-06-08T17:23:15.105Z,21.38
2019-06-08T17:25:44.198Z,22.97
2019-06-08T17:28:12.992Z,23.32
2019-06-08T17:30:41.883Z,21.52
2019-06-08T17:33:11.396Z,23.96
2019-06-08T17:35:40.322Z,23.13
2019-06-08T17:38:09.792Z,25.18
2019-06-08T17:40:38.572Z,25.69
2019-06-08T17:43:08.282Z,23.37
2019-06-08T17:45:38.406Z,22.92
2019-06-08T17:48:07.986Z,23.76
2019-06-08T17:50:37.014Z,24.22
2019-06-08T17:53:06.100Z,25.56
2019-06-08T17:55:35.176Z,25.28
2019-06-08T17:58:04.193Z,23.78
2019-06-08T18:00:33.248Z,25.46
2019-06-08T18:03:02.177Z,25.65
2019-06-08T18:05:31.185Z,24.60
2019-06-08T18:08:00.070Z,22.16
2019-06-08T18:10:29.568Z,24.04
2019-06-08T18:12:58.880Z,23.19
2019-06-08T18:15:28.466Z,24.00
2019-06-08T18:17:57.778Z,25.86
2019-06-08T18:20:28.387Z,27.16
2019-06-08T18:22:58.944Z,28.20
2019-06-08T18:25:28.114Z,28.50
2019-06-08T18:28:06.531Z,27.43
2019-06-08T18:30:27.784Z,28.64
2019-06-08T18:32:58.041Z,31.55
2019-06-08T18:35:27.875Z,33.27
2019-06-08T18:37:57.883Z,34.12
2019-06-08T18:40:27.687Z,33.24
2019-06-08T18:42:57.838Z,32.68
2019-06-08T18:45:27.646Z,32.31
2019-06-08T18:47:57.782Z,34.33
2019-06-08T18:50:28.643Z,30.15
2019-06-08T18:52:58.100Z,30.80
2019-06-08T18:55:27.894Z,33.65
2019-06-08T18:57:57.277Z,35.47
2019-06-08T19:00:39.753Z,35.42
2019-06-08T19:03:08.942Z,34.32
2019-06-08T19:05:41.607Z,35.18
2019-06-08T19:08:10.316Z,35.45
2019-06-08T19:10:41.123Z,34.93
2019-06-08T19:13:11.279Z,35.21
2019-06-08T19:15:44.478Z,34.56
2019-06-08T19:18:12.050Z,34.54
2019-06-08T19:20:44.299Z,36.97
2019-06-08T19:23:12.380Z,37.48
2019-06-08T19:25:44.700Z,37.76
2019-06-08T19:28:12.205Z,39.06
2019-06-08T19:30:43.585Z,39.01
2019-06-08T19:33:13.364Z,38.94
2019-06-08T19:35:43.927Z,39.39
2019-06-08T19:38:12.895Z,40.31
2019-06-08T19:40:42.661Z,39.78
2019-06-08T19:43:12.416Z,40.26
2019-06-08T19:45:42.431Z,40.48
2019-06-08T19:48:12.768Z,41.31
2019-06-08T19:50:42.761Z,41.31
2019-06-08T19:53:13.915Z,40.83
2019-06-08T19:55:43.147Z,41.17
2019-06-08T19:58:12.111Z,41.65
2019-06-08T20:00:42.334Z,41.35
2019-06-08T20:03:13.167Z,42.00
2019-06-08T20:05:42.915Z,41.92
2019-06-08T20:08:11.973Z,42.18
2019-06-08T20:10:43.061Z,41.87
2019-06-08T20:13:12.520Z,41.82
2019-06-08T20:15:47.362Z,42.05
2019-06-08T20:18:11.945Z,42.38
2019-06-08T20:20:42.035Z,41.89
2019-06-08T20:23:11.900Z,42.31
2019-06-08T20:25:41.119Z,43.09
2019-06-08T20:28:11.092Z,43.44
2019-06-08T20:30:39.979Z,43.80
2019-06-08T20:33:09.182Z,42.94
2019-06-08T20:35:38.212Z,43.17
2019-06-08T20:38:08.272Z,43.42
2019-06-08T20:40:38.344Z,43.42
2019-06-08T20:43:07.608Z,43.15
2019-06-08T20:45:37.476Z,42.48
2019-06-08T20:48:06.529Z,42.24
2019-06-08T20:50:37.837Z,42.29
2019-06-08T20:53:08.602Z,41.67
2019-06-08T20:55:40.487Z,41.77
2019-06-08T20:58:09.255Z,41.90
2019-06-08T21:00:39.279Z,41.76
2019-06-08T21:03:09.185Z,42.48
2019-06-08T21:05:38.100Z,42.34
2019-06-08T21:08:08.426Z,42.73
2019-06-08T21:10:37.926Z,42.84
2019-06-08T21:13:07.375Z,43.06
2019-06-08T21:15:38.381Z,42.79
2019-06-08T21:18:08.473Z,43.74
2019-06-08T21:20:37.878Z,43.72
2019-06-08T21:23:08.149Z,43.69
2019-06-08T21:25:37.380Z,44.25
2019-06-08T21:28:07.736Z,44.67
2019-06-08T21:30:39.790Z,44.23
2019-06-08T21:33:09.809Z,44.81
2019-06-08T21:35:38.834Z,45.54
2019-06-08T21:38:22.693Z,45.00
2019-06-08T21:40:38.339Z,45.68
2019-06-08T21:43:08.280Z,44.75
2019-06-08T21:45:38.056Z,47.36
2019-06-08T21:48:07.594Z,46.09
2019-06-08T21:50:37.110Z,46.43
2019-06-08T21:53:07.742Z,46.54
2019-06-08T21:55:38.002Z,46.54
2019-06-08T21:58:08.157Z,45.79
2019-06-08T22:00:43.265Z,46.95
2019-06-08T22:03:10.837Z,47.31
2019-06-08T22:05:39.797Z,46.97
2019-06-08T22:08:08.927Z,47.45
2019-06-08T22:10:39.252Z,46.91
2019-06-08T22:13:12.263Z,47.05
2019-06-08T22:15:39.943Z,47.28
2019-06-08T22:18:09.221Z,47.57
2019-06-08T22:20:38.388Z,47.28
2019-06-08T22:23:08.419Z,46.57
2019-06-08T22:25:38.747Z,46.42
2019-06-08T22:28:08.352Z,46.77
2019-06-08T22:30:42.715Z,46.45
2019-06-08T22:33:09.002Z,45.93
2019-06-08T22:35:37.928Z,46.51
2019-06-08T22:38:08.508Z,46.67
2019-06-08T22:40:37.530Z,46.89
2019-06-08T22:43:08.093Z,47.42
2019-06-08T22:45:37.568Z,48.05
2019-06-08T22:48:08.289Z,47.55
2019-06-08T22:50:38.717Z,48.53
2019-06-08T22:53:08.280Z,48.69
2019-06-08T22:55:38.701Z,48.79
2019-06-08T22:58:08.232Z,48.93
2019-06-08T23:00:51.344Z,49.31
2019-06-08T23:03:08.534Z,51.46
2019-06-08T23:05:37.798Z,52.96
2019-06-08T23:08:09.368Z,52.32
2019-06-08T23:10:37.556Z,52.10
2019-06-08T23:13:08.562Z,52.15
2019-06-08T23:15:37.115Z,51.39
2019-06-08T23:18:09.146Z,53.79
2019-06-08T23:20:37.173Z,54.18
2019-06-08T23:23:08.690Z,51.83
2019-06-08T23:25:37.270Z,51.21
2019-06-08T23:28:09.508Z,52.35
2019-06-08T23:30:38.285Z,51.17
2019-06-08T23:33:11.315Z,51.58
2019-06-08T23:35:57.180Z,50.85
2019-06-08T23:38:09.561Z,50.89
2019-06-08T23:40:38.562Z,50.97
2019-06-08T23:43:08.437Z,51.75
2019-06-08T23:45:37.967Z,51.63
2019-06-08T23:48:07.137Z,50.30
2019-06-08T23:50:37.943Z,50.83
2019-06-08T23:53:10.476Z,51.01
2019-06-08T23:55:38.260Z,51.10
2019-06-08T23:58:09.924Z,52.93
